Porum, OK

9:07 PM CDT on April 19, 2015 (GMT -0500)
Stigler | | Change Station
CLOSE
Current Station
Airport
Location: Stigler,
Elevation: 600 ft
Nearby Weather Stations

Elev 600 ft 35.29 °N, 95.09 °W | Updated 12 minutes ago

Clear
Clear
55 °F
Feels Like 55 °F
N
14
Wind Variable Wind from NW
Gusts 20 mph

Today
High -- | Low -- °F
--% Chance of Precip.
Yesterday
High -- | Low -- °F
Precip. -- in
6:43 AM 7:57 PM
New Moon, 2% visible
Pressure 29.77 in
Visibility 10.0 miles
Clouds Scattered Clouds 3400 ft
Dew Point 48 °F
Humidity 77%
Rainfall 0.60 in
Snow Depth Not available.
UV 0 out of 12
Pollen 9.60 out of 12
Air Quality Not available.
Flu Activity Regional
METAR KGZL 200155Z AUTO 31012G17KT 10SM SCT034 13/09 A2977 RMK AO2

More Conditions Fewer Conditions

Pressure 29.77 in
Visibility 10.0 miles
Clouds Scattered Clouds 3400 ft
Dew Point 48 °F
Humidity 77%
Rainfall 0.60 in
Snow Depth Not available.
UV 0 out of 12
Pollen 9.60 out of 12
Air Quality Not available.
Flu Activity Regional
METAR KGZL 200155Z AUTO 31012G17KT 10SM SCT034 13/09 A2977 RMK AO2

More Conditions Fewer Conditions

Nowcast | as of 7:23 PM CDT on April 19, 2015

At 7:19 PM... National Weather Service Doppler radar continued to indicate scattered showers and thunderstorms... now having been confined to extreme northeast Oklahoma and over parts of western Arkansas. The showers and storms had ended roughly to the west of Highway 69 in eastern Oklahoma. The precipitation persisted to the east... with predominantly scattered showers advancing eastward at 35 to 40 mph. Through 9:00 PM... a cold front will continue to sweep toward the southeast through eastern Oklahoma and into western Arkansas. Scattered showers are expected to continue to abate from northwest to southeast. As low pressure has rapidly advanced eastward into southwest Missouri... precipitation will become confined to locations in western Arkansas before cooler drier air forces the rain showers into central Arkansas. A Severe Thunderstorm Watch remains in effect for parts of western Arkansas until 8:00 PM CDT Sunday.

×

10-Day Weather Forecast

Almanac

Astronomy

Apr. 19, 2015 Rise Set
Actual Time
Civil Twilight
Nautical Twilight
Astronomical Twilight
Moon
Length of Visible Light
Length of Day
Tomorrow will be .
, % of the Moon is Illuminated

Today's Extremes

State Highs State Lows

Community

WunderPhotos

Upload Photos

1,815,097 photos uploaded!

WunderBlogs® & News

Nearby

Air Quality

  Air Quality AQ Index Pollutant
Not available.

Snow Depth

Station Depth Elevation

Earthquake Activity

City Distance Mag. Time & Date
Minimum magnitude displayed is 2.5.

Coastal Water Temperatures

Place Temperature

Stations

Nearby Weather Stations

Station Location Temp. Windchill Dew Point Humidity Wind Precip. Elev Updated Type